Time;durP1;ratioP1;P1;durP2;ratioP2;P2;SDS_P1;SDS_P2;PMS_P1;PMS_P2;Temp;Humidity;BMP_temperature;BMP_pressure;BME280_temperature;BME280_humidity;BME280_pressure;Samples;Min_cycle;Max_cycle;Signal;HPM_P1;HPM_P2
2022/02/22 00:02:00;;;;;;;22.77;3.83;;;;;;;;;;5082463;28;20401;-58
2022/02/22 00:04:26;;;;;;;31.77;4.10;;;;;;;;;;5083412;28;20032;-58
2022/02/22 00:06:52;;;;;;;27.77;4.03;;;;;;;;;;5086345;28;20097;-58
2022/02/22 00:09:18;;;;;;;32.08;4.85;;;;;;;;;;5079431;28;20059;-58
2022/02/22 00:11:43;;;;;;;25.98;3.25;;;;;;;;;;5090649;28;20060;-58
2022/02/22 00:14:11;;;;;;;32.67;4.05;;;;;;;;;;5091534;28;20031;-57
2022/02/22 00:16:36;;;;;;;29.70;4.03;;;;;;;;;;5080768;28;20043;-58
2022/02/22 00:19:02;;;;;;;28.25;5.22;;;;;;;;;;5088572;28;20028;-58
2022/02/22 00:21:27;;;;;;;21.08;3.00;;;;;;;;;;5067776;28;20039;-58
2022/02/22 00:23:53;;;;;;;18.42;3.13;;;;;;;;;;5087026;28;20073;-58
2022/02/22 00:26:21;;;;;;;29.48;5.50;;;;;;;;;;5068763;28;20032;-58
2022/02/22 00:28:47;;;;;;;22.80;3.22;;;;;;;;;;5091286;28;20059;-58
2022/02/22 00:31:12;;;;;;;28.00;4.25;;;;;;;;;;5087321;28;20031;-58
2022/02/22 00:33:38;;;;;;;19.35;2.85;;;;;;;;;;5081125;28;20040;-58
2022/02/22 00:36:04;;;;;;;36.42;4.88;;;;;;;;;;5080598;28;20398;-58
2022/02/22 00:38:30;;;;;;;29.95;3.65;;;;;;;;;;5084525;28;20163;-58
2022/02/22 00:40:55;;;;;;;25.73;3.92;;;;;;;;;;5085037;28;20444;-58
2022/02/22 00:43:21;;;;;;;39.60;4.90;;;;;;;;;;5086597;28;20043;-58
2022/02/22 00:45:46;;;;;;;48.03;4.60;;;;;;;;;;5090870;28;20033;-58
2022/02/22 00:48:12;;;;;;;32.20;3.83;;;;;;;;;;5088090;28;20036;-59
2022/02/22 00:50:38;;;;;;;34.28;4.25;;;;;;;;;;5086973;28;20729;-59
2022/02/22 00:53:03;;;;;;;32.30;4.35;;;;;;;;;;5087746;28;20105;-58
2022/02/22 00:55:29;;;;;;;32.50;3.65;;;;;;;;;;5086384;28;20486;-58
2022/02/22 00:57:54;;;;;;;39.33;4.85;;;;;;;;;;5089238;28;20047;-59
2022/02/22 01:00:20;;;;;;;18.77;4.22;;;;;;;;;;5075305;28;20040;-58
2022/02/22 01:02:47;;;;;;;50.33;5.65;;;;;;;;;;5066815;28;20035;-57
2022/02/22 01:05:13;;;;;;;33.15;3.78;;;;;;;;;;5064500;28;20052;-59
2022/02/22 01:07:39;;;;;;;28.98;3.90;;;;;;;;;;5068157;28;20032;-58
2022/02/22 01:10:05;;;;;;;26.92;3.90;;;;;;;;;;5064171;28;20896;-59
2022/02/22 01:12:31;;;;;;;32.78;4.95;;;;;;;;;;5062828;28;20029;-58
2022/02/22 01:14:56;;;;;;;28.42;3.97;;;;;;;;;;5065623;28;20088;-57
2022/02/22 01:17:22;;;;;;;32.38;4.05;;;;;;;;;;5068091;28;20067;-58
2022/02/22 01:19:48;;;;;;;26.00;3.00;;;;;;;;;;5060674;28;20505;-58
2022/02/22 01:22:13;;;;;;;34.17;4.03;;;;;;;;;;5062338;28;20113;-58
2022/02/22 01:24:39;;;;;;;24.50;2.80;;;;;;;;;;5061812;28;20557;-59
2022/02/22 01:27:04;;;;;;;26.08;3.38;;;;;;;;;;5061255;28;20040;-58
2022/02/22 01:29:31;;;;;;;29.83;4.57;;;;;;;;;;5067303;28;20123;-58
2022/02/22 01:31:57;;;;;;;32.45;4.22;;;;;;;;;;5066124;28;20036;-58
2022/02/22 01:34:22;;;;;;;31.13;4.07;;;;;;;;;;5068110;28;20032;-58
2022/02/22 01:36:48;;;;;;;30.80;3.45;;;;;;;;;;5064066;28;20506;-58
2022/02/22 01:39:13;;;;;;;24.40;2.80;;;;;;;;;;5063694;28;20513;-57
2022/02/22 01:41:41;;;;;;;32.83;4.60;;;;;;;;;;5056127;28;20035;-58
2022/02/22 01:44:07;;;;;;;26.00;3.13;;;;;;;;;;5066140;28;20036;-57
2022/02/22 01:46:32;;;;;;;33.45;3.70;;;;;;;;;;5063199;28;20036;-56
2022/02/22 01:48:59;;;;;;;24.65;3.55;;;;;;;;;;5056682;28;20043;-57
2022/02/22 01:51:25;;;;;;;22.55;2.78;;;;;;;;;;5064253;28;20128;-57
2022/02/22 01:53:50;;;;;;;30.08;3.53;;;;;;;;;;5064565;28;20554;-57
2022/02/22 01:56:17;;;;;;;25.92;3.70;;;;;;;;;;5067083;28;20033;-59
2022/02/22 01:58:43;;;;;;;28.67;3.72;;;;;;;;;;5067191;28;20054;-58
2022/02/22 02:01:09;;;;;;;19.70;3.33;;;;;;;;;;5069729;28;20517;-58
2022/02/22 02:03:35;;;;;;;21.95;3.50;;;;;;;;;;5071989;28;20036;-58
2022/02/22 02:06:00;;;;;;;16.92;2.70;;;;;;;;;;5066208;28;20036;-58
2022/02/22 02:08:26;;;;;;;23.88;3.05;;;;;;;;;;5063798;28;20112;-58
2022/02/22 02:10:52;;;;;;;22.40;3.10;;;;;;;;;;5062984;28;20029;-59
2022/02/22 02:13:17;;;;;;;23.70;3.83;;;;;;;;;;5064834;28;20039;-58
2022/02/22 02:15:43;;;;;;;14.75;1.85;;;;;;;;;;5067456;28;20068;-58
2022/02/22 02:18:08;;;;;;;17.95;2.90;;;;;;;;;;5065345;28;20104;-58
2022/02/22 02:20:33;;;;;;;25.85;3.97;;;;;;;;;;5059570;28;20083;-58
2022/02/22 02:22:59;;;;;;;21.67;3.03;;;;;;;;;;5067719;28;20032;-58
2022/02/22 02:25:25;;;;;;;27.05;4.07;;;;;;;;;;5064455;28;20036;-58
2022/02/22 02:27:51;;;;;;;13.65;2.15;;;;;;;;;;5064719;28;20678;-57
2022/02/22 02:30:17;;;;;;;21.88;3.70;;;;;;;;;;5062832;28;20028;-57
2022/02/22 02:32:43;;;;;;;24.50;3.47;;;;;;;;;;5068788;28;20042;-58
2022/02/22 02:35:09;;;;;;;28.80;3.30;;;;;;;;;;5065154;28;20119;-58
2022/02/22 02:37:36;;;;;;;26.05;3.53;;;;;;;;;;5066328;28;20028;-58
2022/02/22 02:40:04;;;;;;;15.88;2.42;;;;;;;;;;5067992;28;20108;-58
2022/02/22 02:42:30;;;;;;;26.98;2.63;;;;;;;;;;5069746;28;20082;-58
2022/02/22 02:44:55;;;;;;;19.55;3.75;;;;;;;;;;5065232;28;21241;-58
2022/02/22 02:47:21;;;;;;;25.98;3.65;;;;;;;;;;5063952;28;20032;-58
2022/02/22 02:49:46;;;;;;;27.23;3.50;;;;;;;;;;5064139;28;20029;-58
2022/02/22 02:52:12;;;;;;;29.95;3.28;;;;;;;;;;5067979;28;20498;-58
2022/02/22 02:54:38;;;;;;;15.07;2.28;;;;;;;;;;5062328;28;20035;-57
2022/02/22 02:57:04;;;;;;;25.73;3.33;;;;;;;;;;5062914;28;20032;-58
2022/02/22 02:59:30;;;;;;;19.10;2.95;;;;;;;;;;5066483;28;20442;-58
2022/02/22 03:01:55;;;;;;;19.92;3.65;;;;;;;;;;5064654;28;20036;-59
2022/02/22 03:04:21;;;;;;;20.80;3.85;;;;;;;;;;5063014;28;20040;-58
2022/02/22 03:06:47;;;;;;;23.08;2.80;;;;;;;;;;5063443;28;20032;-58
2022/02/22 03:09:13;;;;;;;23.73;2.90;;;;;;;;;;5064707;28;20035;-58
2022/02/22 03:11:39;;;;;;;24.50;3.13;;;;;;;;;;5065712;28;20028;-57
2022/02/22 03:14:06;;;;;;;20.15;2.92;;;;;;;;;;5064708;28;20028;-57
2022/02/22 03:16:32;;;;;;;36.75;4.10;;;;;;;;;;5066248;28;20063;-57
2022/02/22 03:18:58;;;;;;;31.67;3.50;;;;;;;;;;5063603;28;20637;-57
2022/02/22 03:21:23;;;;;;;22.42;3.22;;;;;;;;;;5067984;28;20040;-57
2022/02/22 03:23:49;;;;;;;37.88;3.30;;;;;;;;;;5067482;28;20036;-57
2022/02/22 03:26:14;;;;;;;17.60;2.88;;;;;;;;;;5069136;28;20036;-58
2022/02/22 03:28:40;;;;;;;21.60;2.78;;;;;;;;;;5063348;28;20049;-57
2022/02/22 03:31:06;;;;;;;29.02;3.10;;;;;;;;;;5062657;28;20031;-58
2022/02/22 03:33:33;;;;;;;28.80;3.72;;;;;;;;;;5067324;28;20025;-58
2022/02/22 03:35:59;;;;;;;15.98;2.65;;;;;;;;;;5067126;28;20069;-58
2022/02/22 03:38:25;;;;;;;20.50;2.40;;;;;;;;;;5062700;28;20466;-58
2022/02/22 03:40:51;;;;;;;17.35;2.60;;;;;;;;;;5066964;28;20534;-58
2022/02/22 03:43:16;;;;;;;19.98;3.53;;;;;;;;;;5059942;28;20044;-57
2022/02/22 03:45:42;;;;;;;54.55;8.15;;;;;;;;;;5059652;28;20036;-58
2022/02/22 03:48:07;;;;;;;24.00;2.95;;;;;;;;;;5066808;28;20517;-57
2022/02/22 03:50:33;;;;;;;29.85;3.40;;;;;;;;;;5068733;28;20032;-57
2022/02/22 03:52:59;;;;;;;21.33;3.00;;;;;;;;;;5074238;28;20798;-56
2022/02/22 03:55:24;;;;;;;25.52;2.88;;;;;;;;;;5065898;28;20457;-57
2022/02/22 03:57:50;;;;;;;31.30;3.20;;;;;;;;;;5062778;28;21165;-58
2022/02/22 04:00:18;;;;;;;30.33;2.97;;;;;;;;;;5063305;28;20471;-58
2022/02/22 04:02:45;;;;;;;37.65;3.13;;;;;;;;;;5060235;28;20017;-57
2022/02/22 04:05:11;;;;;;;18.88;2.53;;;;;;;;;;5067764;28;20043;-57
2022/02/22 04:07:37;;;;;;;27.70;3.13;;;;;;;;;;5064972;28;20029;-57
2022/02/22 04:10:05;;;;;;;17.15;2.95;;;;;;;;;;5072444;28;20585;-58
2022/02/22 04:12:31;;;;;;;22.38;2.90;;;;;;;;;;5063848;28;20499;-58
2022/02/22 04:14:57;;;;;;;23.35;3.80;;;;;;;;;;5061651;28;20036;-57
2022/02/22 04:17:22;;;;;;;21.40;3.38;;;;;;;;;;5065880;28;20046;-58
2022/02/22 04:19:51;;;;;;;20.17;2.85;;;;;;;;;;5071894;28;20769;-57
2022/02/22 04:22:17;;;;;;;21.88;3.33;;;;;;;;;;5065414;28;20059;-58
2022/02/22 04:24:42;;;;;;;23.00;3.35;;;;;;;;;;5069553;28;20492;-57
2022/02/22 04:27:08;;;;;;;29.67;3.80;;;;;;;;;;5067575;28;20511;-57
2022/02/22 04:29:33;;;;;;;26.40;3.03;;;;;;;;;;5062990;28;21338;-56
2022/02/22 04:32:01;;;;;;;22.42;2.85;;;;;;;;;;5063063;28;20058;-58
2022/02/22 04:34:26;;;;;;;33.45;4.22;;;;;;;;;;5062912;28;20380;-57
2022/02/22 04:36:52;;;;;;;35.63;3.10;;;;;;;;;;5064070;28;20047;-58
2022/02/22 04:39:17;;;;;;;19.48;2.78;;;;;;;;;;5064150;28;20035;-58
2022/02/22 04:41:43;;;;;;;26.48;3.47;;;;;;;;;;5062278;28;20376;-58
2022/02/22 04:44:08;;;;;;;22.80;2.92;;;;;;;;;;5069380;28;20020;-59
2022/02/22 04:46:34;;;;;;;31.77;3.40;;;;;;;;;;5063677;28;20501;-59
2022/02/22 04:49:00;;;;;;;19.08;4.22;;;;;;;;;;5064388;28;20341;-59
2022/02/22 04:51:25;;;;;;;30.40;4.53;;;;;;;;;;5060131;28;20059;-58
2022/02/22 04:53:51;;;;;;;24.77;3.75;;;;;;;;;;5064634;28;20152;-57
2022/02/22 04:56:16;;;;;;;32.72;4.22;;;;;;;;;;5065666;28;20583;-58
2022/02/22 04:58:42;;;;;;;37.85;4.25;;;;;;;;;;5063543;28;20027;-57
2022/02/22 05:01:08;;;;;;;24.63;3.05;;;;;;;;;;5067220;28;20041;-57
2022/02/22 05:03:33;;;;;;;31.98;3.80;;;;;;;;;;5061488;28;20407;-56
2022/02/22 05:05:59;;;;;;;17.88;2.40;;;;;;;;;;5057579;28;20033;-58
2022/02/22 05:08:24;;;;;;;18.10;3.40;;;;;;;;;;5059110;28;20056;-58
2022/02/22 05:10:50;;;;;;;22.15;3.22;;;;;;;;;;5060119;28;20024;-58
2022/02/22 05:13:15;;;;;;;22.33;3.33;;;;;;;;;;5065813;28;20048;-57
2022/02/22 05:15:41;;;;;;;16.70;2.40;;;;;;;;;;5067915;28;20200;-58
2022/02/22 05:18:06;;;;;;;35.60;5.00;;;;;;;;;;5061713;28;20079;-57
2022/02/22 05:20:32;;;;;;;32.40;4.18;;;;;;;;;;5067479;28;20037;-58
2022/02/22 05:22:58;;;;;;;19.27;2.70;;;;;;;;;;5061623;28;20081;-56
2022/02/22 05:25:24;;;;;;;30.75;3.17;;;;;;;;;;5064002;28;20056;-58
2022/02/22 05:27:49;;;;;;;35.35;3.88;;;;;;;;;;5062429;28;20087;-58
2022/02/22 05:30:17;;;;;;;26.08;4.00;;;;;;;;;;5059564;28;20052;-57
2022/02/22 05:32:43;;;;;;;31.80;4.68;;;;;;;;;;5059698;28;20029;-58
2022/02/22 05:35:10;;;;;;;33.33;3.70;;;;;;;;;;5059816;28;20337;-57
2022/02/22 05:37:36;;;;;;;31.95;3.65;;;;;;;;;;5062377;28;20032;-57
2022/02/22 05:40:03;;;;;;;26.55;3.28;;;;;;;;;;5057859;28;20498;-58
2022/02/22 05:42:29;;;;;;;35.40;4.72;;;;;;;;;;5061827;28;20028;-57
2022/02/22 05:44:56;;;;;;;23.10;3.25;;;;;;;;;;5060256;28;20530;-58
2022/02/22 05:47:21;;;;;;;26.65;3.35;;;;;;;;;;5065520;28;20245;-57
2022/02/22 05:49:47;;;;;;;32.85;3.80;;;;;;;;;;5065588;28;20033;-57
2022/02/22 05:52:13;;;;;;;20.88;2.83;;;;;;;;;;5060952;28;20034;-57
2022/02/22 05:54:39;;;;;;;38.35;5.40;;;;;;;;;;5059349;28;20035;-57
2022/02/22 05:57:05;;;;;;;34.38;4.55;;;;;;;;;;5066452;28;20028;-57
2022/02/22 05:59:31;;;;;;;28.02;4.90;;;;;;;;;;5056174;28;20289;-57
2022/02/22 06:01:56;;;;;;;25.13;2.75;;;;;;;;;;5063449;28;20123;-58
2022/02/22 06:04:22;;;;;;;19.52;2.88;;;;;;;;;;5065382;28;20032;-58
2022/02/22 06:06:48;;;;;;;22.70;4.00;;;;;;;;;;5069797;28;20127;-58
2022/02/22 06:09:15;;;;;;;32.30;4.25;;;;;;;;;;5055207;28;20396;-58
2022/02/22 06:11:41;;;;;;;25.40;2.65;;;;;;;;;;5061472;28;20043;-58
2022/02/22 06:14:06;;;;;;;16.38;3.00;;;;;;;;;;5062713;28;20521;-58
2022/02/22 06:16:32;;;;;;;29.63;3.40;;;;;;;;;;5062058;28;20033;-58
2022/02/22 06:18:58;;;;;;;23.98;2.63;;;;;;;;;;5059005;28;20449;-58
2022/02/22 06:21:23;;;;;;;30.90;4.03;;;;;;;;;;5059939;28;20038;-58
2022/02/22 06:23:49;;;;;;;34.78;3.65;;;;;;;;;;5047434;28;20043;-58
2022/02/22 06:26:15;;;;;;;27.63;4.05;;;;;;;;;;5063625;28;20064;-58
2022/02/22 06:28:41;;;;;;;25.40;2.55;;;;;;;;;;5063794;28;20161;-58
2022/02/22 06:31:06;;;;;;;21.52;3.13;;;;;;;;;;5060992;28;20060;-58
2022/02/22 06:33:33;;;;;;;33.65;4.05;;;;;;;;;;5067450;28;20044;-56
2022/02/22 06:35:59;;;;;;;44.08;5.18;;;;;;;;;;5064421;28;20175;-58
2022/02/22 06:38:25;;;;;;;25.30;2.80;;;;;;;;;;5066305;28;20127;-57
2022/02/22 06:40:50;;;;;;;28.65;3.90;;;;;;;;;;5067409;28;20021;-57
2022/02/22 06:43:16;;;;;;;25.15;3.03;;;;;;;;;;5064584;28;20554;-57
2022/02/22 06:45:41;;;;;;;44.67;5.07;;;;;;;;;;5064152;28;20498;-58
2022/02/22 06:48:07;;;;;;;26.08;3.15;;;;;;;;;;5065803;28;20040;-58
2022/02/22 06:50:35;;;;;;;28.92;2.75;;;;;;;;;;5062287;28;20056;-58
2022/02/22 06:53:00;;;;;;;26.23;2.92;;;;;;;;;;5066055;28;20029;-61
2022/02/22 06:55:26;;;;;;;15.27;1.95;;;;;;;;;;5067652;28;20581;-59
2022/02/22 06:58:03;;;;;;;5.97;1.17;;;;;;;;;;5059853;28;20031;-59
2022/02/22 07:00:30;;;;;;;8.55;0.73;;;;;;;;;;5064088;28;20039;-60
2022/02/22 07:02:56;;;;;;;2.17;0.52;;;;;;;;;;5066680;28;20294;-60
2022/02/22 07:05:21;;;;;;;9.98;1.98;;;;;;;;;;5071109;28;20113;-59
2022/02/22 07:07:47;;;;;;;11.23;1.40;;;;;;;;;;5066085;28;20166;-59
2022/02/22 07:10:12;;;;;;;2.10;0.35;;;;;;;;;;5059289;28;20036;-60
2022/02/22 07:12:38;;;;;;;4.38;0.80;;;;;;;;;;5059863;28;20067;-59
2022/02/22 07:15:05;;;;;;;2.85;0.43;;;;;;;;;;5057042;28;20111;-59
2022/02/22 07:17:30;;;;;;;8.55;0.90;;;;;;;;;;5063537;28;20072;-58
2022/02/22 07:19:56;;;;;;;0.77;0.30;;;;;;;;;;5044044;28;20440;-57
2022/02/22 07:22:24;;;;;;;2.38;0.60;;;;;;;;;;5058630;28;20101;-58
2022/02/22 07:24:50;;;;;;;2.17;0.95;;;;;;;;;;5070406;28;20027;-58
2022/02/22 07:27:15;;;;;;;4.53;0.50;;;;;;;;;;5066063;28;20108;-58
2022/02/22 07:29:41;;;;;;;4.07;0.60;;;;;;;;;;5066285;28;20526;-58
2022/02/22 07:32:07;;;;;;;7.30;0.60;;;;;;;;;;5070181;28;20036;-58
2022/02/22 07:34:33;;;;;;;6.00;0.85;;;;;;;;;;5072216;28;20225;-57
2022/02/22 07:36:58;;;;;;;10.13;0.90;;;;;;;;;;5067001;28;20715;-57
2022/02/22 07:39:24;;;;;;;7.78;0.98;;;;;;;;;;5069262;28;20036;-57
2022/02/22 07:41:49;;;;;;;11.65;1.90;;;;;;;;;;5059437;28;20098;-57
2022/02/22 07:44:15;;;;;;;10.77;1.23;;;;;;;;;;5064211;28;20028;-57
2022/02/22 07:46:40;;;;;;;9.95;0.95;;;;;;;;;;5067778;28;20032;-57
2022/02/22 07:49:06;;;;;;;10.27;1.30;;;;;;;;;;5067589;28;20398;-57
2022/02/22 07:51:31;;;;;;;11.07;3.42;;;;;;;;;;5066463;28;20148;-58
2022/02/22 07:53:57;;;;;;;14.05;1.77;;;;;;;;;;5064716;28;20039;-58
2022/02/22 07:56:22;;;;;;;11.57;1.80;;;;;;;;;;5065619;28;20596;-59
2022/02/22 07:58:48;;;;;;;5.30;1.25;;;;;;;;;;5060205;28;20399;-57
2022/02/22 08:01:13;;;;;;;5.65;1.48;;;;;;;;;;5065651;28;20040;-57
2022/02/22 08:03:43;;;;;;;17.55;1.63;;;;;;;;;;5063666;28;20491;-57
2022/02/22 08:06:10;;;;;;;14.80;1.42;;;;;;;;;;5063526;28;20041;-57
2022/02/22 08:08:35;;;;;;;7.32;1.83;;;;;;;;;;5061014;28;20044;-57
2022/02/22 08:11:01;;;;;;;15.85;2.45;;;;;;;;;;5064403;28;20024;-57
2022/02/22 08:13:26;;;;;;;15.55;1.55;;;;;;;;;;5057830;28;20041;-58
2022/02/22 08:15:52;;;;;;;8.85;0.85;;;;;;;;;;5057343;28;20051;-57
2022/02/22 08:18:17;;;;;;;8.13;1.40;;;;;;;;;;5061565;28;20041;-57
2022/02/22 08:20:42;;;;;;;15.98;2.08;;;;;;;;;;5064765;28;20498;-56
2022/02/22 08:23:08;;;;;;;8.07;0.93;;;;;;;;;;5060995;28;20025;-59
2022/02/22 08:25:34;;;;;;;16.13;1.25;;;;;;;;;;5060057;28;20410;-58
2022/02/22 08:28:05;;;;;;;15.55;1.85;;;;;;;;;;5079920;28;20067;-56
2022/02/22 08:30:31;;;;;;;12.57;2.22;;;;;;;;;;5059996;28;20036;-59
2022/02/22 08:32:56;;;;;;;16.77;1.67;;;;;;;;;;5061017;28;20032;-59
2022/02/22 08:35:22;;;;;;;15.93;2.08;;;;;;;;;;5062231;28;20044;-59
2022/02/22 08:37:50;;;;;;;13.98;1.33;;;;;;;;;;5067324;28;20036;-60
2022/02/22 08:40:28;;;;;;;14.65;1.40;;;;;;;;;;5060724;28;20029;-60
2022/02/22 08:42:53;;;;;;;17.60;1.55;;;;;;;;;;5055361;28;20037;-59
2022/02/22 08:45:28;;;;;;;16.42;1.80;;;;;;;;;;5050005;28;20129;-59
2022/02/22 08:47:54;;;;;;;7.20;1.08;;;;;;;;;;5073316;28;20739;-59
2022/02/22 08:50:20;;;;;;;24.48;2.28;;;;;;;;;;5068934;28;20115;-58
2022/02/22 08:52:46;;;;;;;18.27;2.20;;;;;;;;;;5072014;28;21061;-59
2022/02/22 08:55:12;;;;;;;10.20;1.17;;;;;;;;;;5065138;28;20106;-59
2022/02/22 08:57:37;;;;;;;5.50;1.05;;;;;;;;;;5054743;28;20075;-59
2022/02/22 09:00:08;;;;;;;12.93;1.48;;;;;;;;;;5059812;28;20029;-59
2022/02/22 09:02:34;;;;;;;17.83;1.50;;;;;;;;;;5062463;28;20298;-58
2022/02/22 09:04:59;;;;;;;18.63;2.33;;;;;;;;;;5063394;28;20107;-59
2022/02/22 09:07:25;;;;;;;19.52;2.30;;;;;;;;;;5062398;28;20487;-60
2022/02/22 09:09:50;;;;;;;10.35;1.23;;;;;;;;;;5057950;28;20028;-58
2022/02/22 09:12:16;;;;;;;22.00;1.80;;;;;;;;;;5062815;28;20131;-58
2022/02/22 09:14:41;;;;;;;20.92;2.83;;;;;;;;;;5065470;28;20109;-60
2022/02/22 09:17:07;;;;;;;16.02;1.98;;;;;;;;;;5058029;28;20036;-60
2022/02/22 09:19:32;;;;;;;21.27;2.35;;;;;;;;;;5052154;28;20404;-59
2022/02/22 09:21:57;;;;;;;16.75;2.25;;;;;;;;;;5052308;28;20104;-58
2022/02/22 09:24:23;;;;;;;15.98;2.92;;;;;;;;;;5054511;28;20040;-59
2022/02/22 09:26:48;;;;;;;24.35;2.50;;;;;;;;;;5059263;28;20028;-59
2022/02/22 09:29:14;;;;;;;22.25;2.85;;;;;;;;;;5055911;28;20059;-60
2022/02/22 09:31:39;;;;;;;21.85;3.13;;;;;;;;;;5050006;28;20075;-60
2022/02/22 09:34:05;;;;;;;15.00;1.92;;;;;;;;;;5056536;28;20376;-59
2022/02/22 09:36:30;;;;;;;32.58;3.47;;;;;;;;;;5051195;28;20040;-59
2022/02/22 09:38:56;;;;;;;15.48;2.70;;;;;;;;;;5055616;28;20089;-59
2022/02/22 09:41:21;;;;;;;18.58;2.83;;;;;;;;;;5055940;28;20479;-59
2022/02/22 09:43:47;;;;;;;16.90;3.08;;;;;;;;;;5053416;28;20069;-59
2022/02/22 09:46:14;;;;;;;31.23;3.83;;;;;;;;;;5055061;28;20051;-59
2022/02/22 09:48:39;;;;;;;37.25;3.60;;;;;;;;;;5054231;28;20033;-58
2022/02/22 09:51:05;;;;;;;34.97;5.15;;;;;;;;;;5057836;28;20048;-59
2022/02/22 09:53:30;;;;;;;36.05;3.90;;;;;;;;;;5055022;28;20037;-59
2022/02/22 09:55:57;;;;;;;25.08;3.65;;;;;;;;;;5055062;28;20044;-58
2022/02/22 09:58:23;;;;;;;30.20;3.03;;;;;;;;;;5056474;28;20036;-59
2022/02/22 10:00:59;;;;;;;20.80;3.72;;;;;;;;;;5055564;28;20555;-59
2022/02/22 10:03:24;;;;;;;19.13;3.22;;;;;;;;;;5057690;28;20039;-60
2022/02/22 10:06:03;;;;;;;23.20;4.53;;;;;;;;;;5041858;28;20029;-60
2022/02/22 10:08:31;;;;;;;19.10;2.97;;;;;;;;;;5061681;28;20032;-61
2022/02/22 10:11:03;;;;;;;26.67;3.67;;;;;;;;;;5063605;28;20426;-60
2022/02/22 10:13:29;;;;;;;16.60;2.50;;;;;;;;;;5062260;28;20025;-59
2022/02/22 10:15:55;;;;;;;22.23;2.92;;;;;;;;;;5076080;28;20394;-59
2022/02/22 10:18:20;;;;;;;33.42;3.15;;;;;;;;;;5059031;28;20040;-59
2022/02/22 10:20:49;;;;;;;24.02;3.13;;;;;;;;;;5063409;28;20086;-60
2022/02/22 10:23:28;;;;;;;24.73;3.40;;;;;;;;;;5056883;28;20036;-60
2022/02/22 10:25:55;;;;;;;26.33;3.45;;;;;;;;;;5060004;28;20394;-58
2022/02/22 10:28:21;;;;;;;18.95;2.50;;;;;;;;;;5065312;28;20636;-58
2022/02/22 10:30:50;;;;;;;16.75;2.10;;;;;;;;;;5062933;28;20044;-58
2022/02/22 10:33:18;;;;;;;18.70;3.20;;;;;;;;;;5056243;28;20029;-59
2022/02/22 10:36:04;;;;;;;14.18;1.90;;;;;;;;;;5065808;28;20322;-59
2022/02/22 10:38:35;;;;;;;13.43;2.08;;;;;;;;;;5062757;28;20528;-59
2022/02/22 10:41:14;;;;;;;18.33;2.80;;;;;;;;;;5060793;28;20480;-59
2022/02/22 10:43:40;;;;;;;20.00;2.88;;;;;;;;;;5053702;28;20399;-60
2022/02/22 10:46:08;;;;;;;9.10;1.80;;;;;;;;;;5056870;28;20123;-59
2022/02/22 10:48:41;;;;;;;18.35;2.50;;;;;;;;;;5060366;28;20064;-59
2022/02/22 10:51:16;;;;;;;16.40;1.40;;;;;;;;;;5061099;28;20087;-59
2022/02/22 10:53:42;;;;;;;27.35;2.45;;;;;;;;;;5059998;28;20533;-59
2022/02/22 10:56:11;;;;;;;17.60;2.78;;;;;;;;;;5061604;28;20060;-59
2022/02/22 10:58:43;;;;;;;33.95;3.17;;;;;;;;;;5059232;28;20066;-60
2022/02/22 11:01:12;;;;;;;26.65;4.30;;;;;;;;;;5064977;28;20040;-59
2022/02/22 11:03:38;;;;;;;25.17;2.90;;;;;;;;;;5065168;28;20521;-59
2022/02/22 11:06:04;;;;;;;18.73;1.75;;;;;;;;;;5068678;28;20048;-59
2022/02/22 11:08:31;;;;;;;22.27;2.67;;;;;;;;;;5063448;28;20040;-59
2022/02/22 11:11:32;;;;;;;26.27;2.88;;;;;;;;;;5058468;28;20106;-59
2022/02/22 11:14:20;;;;;;;24.88;3.05;;;;;;;;;;5061614;28;20116;-58
2022/02/22 11:16:46;;;;;;;11.32;1.92;;;;;;;;;;5051811;28;20032;-58
2022/02/22 11:19:37;;;;;;;17.83;2.90;;;;;;;;;;5062332;28;20016;-58
2022/02/22 11:22:12;;;;;;;16.30;1.75;;;;;;;;;;5059342;28;20457;-59
2022/02/22 11:24:48;;;;;;;18.70;2.47;;;;;;;;;;5056338;28;20082;-59
2022/02/22 11:27:23;;;;;;;24.50;2.47;;;;;;;;;;5071131;28;20085;-58
2022/02/22 11:29:55;;;;;;;32.30;3.78;;;;;;;;;;5053418;28;20395;-58
2022/02/22 11:32:23;;;;;;;;;;;;;;;;;;5044911;28;20603;-58
2022/02/22 11:34:49;;;;;;;20.38;2.58;;;;;;;;;;5044564;28;20346;-58
2022/02/22 11:37:17;;;;;;;28.48;3.38;;;;;;;;;;5037306;28;20068;-60
2022/02/22 11:39:52;;;;;;;29.55;3.35;;;;;;;;;;5034826;28;20017;-60
2022/02/22 11:42:24;;;;;;;25.13;3.17;;;;;;;;;;5037947;28;20123;-60
2022/02/22 11:45:10;;;;;;;19.85;3.25;;;;;;;;;;5038359;28;20037;-60
2022/02/22 11:47:38;;;;;;;20.85;1.90;;;;;;;;;;5044743;28;20037;-60
2022/02/22 11:50:15;;;;;;;22.15;2.65;;;;;;;;;;5037224;28;20067;-60
2022/02/22 11:53:13;;;;;;;37.53;2.95;;;;;;;;;;5040148;28;20044;-60
2022/02/22 11:55:39;;;;;;;19.65;2.75;;;;;;;;;;5035307;28;20037;-58
2022/02/22 11:58:14;;;;;;;29.85;3.47;;;;;;;;;;5037120;28;20028;-58
2022/02/22 12:00:45;;;;;;;20.25;3.30;;;;;;;;;;5038858;28;20037;-58
2022/02/22 12:03:12;;;;;;;22.60;3.08;;;;;;;;;;5033699;28;20061;-58
2022/02/22 12:05:41;;;;;;;21.80;2.47;;;;;;;;;;5036171;28;20033;-58
2022/02/22 12:08:17;;;;;;;21.77;2.28;;;;;;;;;;5033101;28;20653;-51
2022/02/22 12:11:00;;;;;;;9.57;2.60;;;;;;;;;;5033178;28;20098;-58
2022/02/22 12:13:39;;;;;;;18.02;2.50;;;;;;;;;;5039004;28;20135;-58
2022/02/22 12:16:22;;;;;;;10.52;2.40;;;;;;;;;;5035866;28;20044;-59
2022/02/22 12:18:53;;;;;;;14.25;2.35;;;;;;;;;;5041858;28;20029;-58
2022/02/22 12:21:21;;;;;;;13.18;2.25;;;;;;;;;;5047948;28;20385;-59
2022/02/22 12:23:46;;;;;;;9.75;2.33;;;;;;;;;;5045883;28;20119;-58
2022/02/22 12:26:18;;;;;;;12.70;2.60;;;;;;;;;;5042546;28;20108;-59
2022/02/22 12:28:51;;;;;;;15.38;2.17;;;;;;;;;;5048399;28;20052;-60
2022/02/22 12:31:24;;;;;;;3.33;1.27;;;;;;;;;;5062920;28;20037;-59
2022/02/22 12:33:50;;;;;;;11.85;2.65;;;;;;;;;;5066067;28;20028;-58
2022/02/22 12:36:18;;;;;;;12.85;2.70;;;;;;;;;;5062177;28;20144;-59
2022/02/22 12:38:44;;;;;;;12.57;2.17;;;;;;;;;;5066202;28;20033;-59
2022/02/22 12:41:15;;;;;;;12.02;1.77;;;;;;;;;;5059940;28;20415;-59
2022/02/22 12:43:45;;;;;;;12.05;1.92;;;;;;;;;;5061934;28;20039;-59
2022/02/22 12:46:10;;;;;;;9.15;1.88;;;;;;;;;;5063211;28;20036;-59
2022/02/22 12:48:42;;;;;;;12.18;2.25;;;;;;;;;;5056396;28;20066;-58
2022/02/22 12:51:08;;;;;;;13.85;1.75;;;;;;;;;;5058734;28;20068;-59
2022/02/22 12:53:34;;;;;;;15.70;2.47;;;;;;;;;;5053608;28;20094;-59
2022/02/22 12:56:00;;;;;;;14.05;2.35;;;;;;;;;;5061897;28;20032;-59
2022/02/22 12:58:36;;;;;;;8.77;1.33;;;;;;;;;;5060591;28;20029;-57
2022/02/22 13:01:17;;;;;;;15.23;1.92;;;;;;;;;;5054021;28;20025;-59
2022/02/22 13:03:45;;;;;;;17.98;2.28;;;;;;;;;;5064506;28;20032;-59
2022/02/22 13:06:15;;;;;;;13.77;1.70;;;;;;;;;;5059098;28;20529;-60
2022/02/22 13:08:41;;;;;;;11.35;2.53;;;;;;;;;;5059158;28;20028;-60
2022/02/22 13:11:07;;;;;;;12.27;2.47;;;;;;;;;;5059034;28;20431;-59
2022/02/22 13:13:33;;;;;;;10.02;1.85;;;;;;;;;;5059993;28;20036;-60
2022/02/22 13:16:13;;;;;;;14.13;2.33;;;;;;;;;;5062202;28;20050;-60
2022/02/22 13:18:51;;;;;;;15.38;2.08;;;;;;;;;;5059504;28;20103;-59
2022/02/22 13:21:17;;;;;;;8.23;1.52;;;;;;;;;;5062073;28;20032;-59
2022/02/22 13:23:43;;;;;;;7.03;1.73;;;;;;;;;;5065861;28;20490;-59
2022/02/22 13:26:08;;;;;;;11.23;1.92;;;;;;;;;;5059359;28;20048;-60
2022/02/22 13:28:37;;;;;;;13.30;2.10;;;;;;;;;;5061298;28;20507;-59
2022/02/22 13:31:15;;;;;;;8.13;1.60;;;;;;;;;;5058489;28;20048;-59
2022/02/22 13:33:41;;;;;;;9.55;2.08;;;;;;;;;;5070280;28;20402;-59
2022/02/22 13:36:14;;;;;;;12.05;2.10;;;;;;;;;;5056726;28;20038;-59
2022/02/22 13:38:40;;;;;;;10.30;2.50;;;;;;;;;;5054117;28;20024;-58
2022/02/22 13:41:15;;;;;;;10.02;1.63;;;;;;;;;;5056005;28;20120;-58
2022/02/22 13:43:41;;;;;;;11.10;1.88;;;;;;;;;;5056345;28;20032;-59
2022/02/22 13:46:08;;;;;;;13.13;2.00;;;;;;;;;;5054726;28;20383;-59
2022/02/22 13:48:34;;;;;;;10.68;2.22;;;;;;;;;;5059695;28;20035;-58
2022/02/22 13:51:05;;;;;;;11.70;2.05;;;;;;;;;;5056416;28;20132;-59
2022/02/22 13:53:31;;;;;;;10.77;1.83;;;;;;;;;;5056497;28;20118;-59
2022/02/22 13:56:01;;;;;;;11.48;2.05;;;;;;;;;;5056265;28;20028;-59
2022/02/22 13:58:29;;;;;;;9.70;1.98;;;;;;;;;;5061673;28;20055;-60
2022/02/22 14:00:58;;;;;;;10.63;1.98;;;;;;;;;;5059589;28;20517;-59
2022/02/22 14:03:24;;;;;;;11.30;1.83;;;;;;;;;;5057574;28;20555;-59
2022/02/22 14:05:49;;;;;;;12.88;2.22;;;;;;;;;;5055939;28;20036;-60
2022/02/22 14:08:15;;;;;;;6.22;1.58;;;;;;;;;;5060330;28;20032;-59
2022/02/22 14:10:41;;;;;;;13.77;2.03;;;;;;;;;;5068281;28;20052;-59
2022/02/22 14:13:11;;;;;;;7.05;1.58;;;;;;;;;;5052384;28;20071;-60
2022/02/22 14:15:38;;;;;;;6.22;0.95;;;;;;;;;;5050959;28;20041;-59
2022/02/22 14:18:05;;;;;;;12.77;2.35;;;;;;;;;;5056737;28;20052;-59
2022/02/22 14:20:35;;;;;;;9.50;1.77;;;;;;;;;;5055747;28;20730;-60
2022/02/22 14:23:02;;;;;;;11.23;2.00;;;;;;;;;;5052613;28;20032;-59
2022/02/22 14:25:29;;;;;;;11.45;1.48;;;;;;;;;;5055862;28;20032;-59
2022/02/22 14:27:55;;;;;;;10.50;1.95;;;;;;;;;;5056234;28;20620;-59
2022/02/22 14:30:21;;;;;;;7.78;1.83;;;;;;;;;;5054971;28;20335;-60
2022/02/22 14:32:46;;;;;;;6.85;1.55;;;;;;;;;;5057587;28;20041;-59